Accueil
METAR-TAF:

METAR-TAF

Aéroports :

Aéroport de Castres-Mazamet

Castres, France

latitude: 43-33-25N, longitude: 2-17-21E, altitude: 239 m

Observation

Le bulletin a été fait il y a 28 minutes, à 23:30 UTC
Vent 4 kt de ouest
Température 8°C
Humidité 87%
Pression 1018 hPa
Visibilité 10 km ou plus
pas de nuages en-dessous de 1500 mètres et pas de cumulonimbus.

METAR: LFCK 252330Z AUTO 26004KT CAVOK 08/06 Q1018

Heure: 00:58 (23:58 UTC)

Prévision

Le bulletin a été fait il y a 6 heures et 58 minutes, à 17:00 UTC
Prévision valable du 25 à 18 UTC au 26 à 03 UTC
Vent 18 kt de sud-est
Visibilité 10 km ou plus
pas de nuages en-dessous de 1500 mètres et pas de cumulonimbus.
Temporairement
du 25 à 18 UTC au 25 à 24 UTC
Vent 20 kt de est/sud-est avec des rafales jusqu'à 30 kt
Evoluant progressivement
du 26 à 01 UTC au 26 à 03 UTC
Vent 5 kt de sud-est

TAF: LFCK 251700Z 2518/2603 13018KT CAVOK TEMPO 2518/2524 12020G30KT BECMG 2601/2603 13005KT

Observations et prévisions météorologiques de plus de 4000 aéroports (messages METAR et TAF).

Les stations disponibles sont représentées par des disques jaunes et rouges sur la carte.

Passer la souris dessus pour voir le nom de la station.

Cliquer dessus pour voir les observations et prévisions météorologiques.

Pour changer de carte: cliquez sur les boutons verts avec une croix noire pour zoomer, sur le bouton vert avec un tiret pour effectuer un zoom arrière, ou sur les flèches vertes pour les cartes adjacentes.


METAR-TAF: